Time;durP1;ratioP1;P1;durP2;ratioP2;P2;SDS_P1;SDS_P2;PMS_P1;PMS_P2;Temp;Humidity;BMP_temperature;BMP_pressure;BME280_temperature;BME280_humidity;BME280_pressure;Samples;Min_cycle;Max_cycle;Signal;HPM_P1;HPM_P2
2024/04/20 00:01:08;;;;;;;3.08;1.10;;;14.40;99.90;;;;;;5411706;26;20019;-60
2024/04/20 00:03:33;;;;;;;2.85;1.10;;;14.40;99.90;;;;;;5412797;26;20012;-60
2024/04/20 00:06:08;;;;;;;5.10;1.65;;;14.50;99.90;;;;;;5421852;26;20003;-60
2024/04/20 00:08:33;;;;;;;3.53;1.23;;;14.30;99.90;;;;;;5422016;26;20004;-60
2024/04/20 00:11:05;;;;;;;2.38;0.90;;;14.20;99.90;;;;;;5410820;26;20073;-59
2024/04/20 00:13:32;;;;;;;4.32;1.23;;;14.30;99.90;;;;;;5409124;26;20003;-60
2024/04/20 00:15:57;;;;;;;4.72;1.38;;;14.20;99.90;;;;;;5408814;26;20378;-59
2024/04/20 00:18:23;;;;;;;1.40;0.90;;;14.20;99.90;;;;;;5421400;26;20006;-60
2024/04/20 00:20:48;;;;;;;2.22;1.20;;;14.30;99.90;;;;;;5421603;26;20014;-59
2024/04/20 00:23:14;;;;;;;6.00;1.20;;;14.30;99.90;;;;;;5421862;26;20318;-59
2024/04/20 00:25:41;;;;;;;2.25;1.10;;;14.20;99.90;;;;;;5401942;26;20130;-60
2024/04/20 00:28:07;;;;;;;2.15;0.90;;;14.30;99.90;;;;;;5415565;26;20004;-59
2024/04/20 00:30:32;;;;;;;4.68;1.33;;;14.40;99.90;;;;;;5419802;26;20392;-60
2024/04/20 00:32:58;;;;;;;3.00;0.90;;;14.20;99.90;;;;;;5421204;26;20003;-59
2024/04/20 00:35:25;;;;;;;2.95;0.80;;;14.10;99.90;;;;;;5419656;26;19999;-59
2024/04/20 00:37:51;;;;;;;2.92;0.80;;;14.10;99.90;;;;;;5419319;26;20013;-59
2024/04/20 00:40:16;;;;;;;4.00;0.90;;;14.20;99.90;;;;;;5417095;26;20102;-59
2024/04/20 00:42:43;;;;;;;3.70;1.27;;;14.30;99.90;;;;;;5415367;26;20101;-59
2024/04/20 00:45:09;;;;;;;4.68;1.10;;;14.20;99.90;;;;;;5417407;26;20018;-59
2024/04/20 00:47:37;;;;;;;1.33;0.77;;;14.20;99.90;;;;;;5415821;26;20377;-59
2024/04/20 00:50:04;;;;;;;4.05;0.93;;;13.90;99.90;;;;;;5416967;26;19999;-59
2024/04/20 00:52:31;;;;;;;1.77;0.90;;;13.90;99.90;;;;;;5417042;26;20020;-59
2024/04/20 00:54:57;;;;;;;2.80;1.08;;;14.00;99.90;;;;;;5417382;26;19999;-59
2024/04/20 00:57:24;;;;;;;2.05;1.00;;;13.80;99.90;;;;;;5392331;26;19999;-59
2024/04/20 00:59:50;;;;;;;6.05;1.25;;;13.80;99.90;;;;;;5416979;26;20026;-59
2024/04/20 01:02:16;;;;;;;2.13;1.00;;;14.00;99.90;;;;;;5416678;26;20035;-59
2024/04/20 01:04:42;;;;;;;2.70;1.05;;;13.90;99.90;;;;;;5417168;26;20031;-59
2024/04/20 01:07:07;;;;;;;3.03;1.33;;;13.90;99.90;;;;;;5415974;26;20014;-59
2024/04/20 01:09:33;;;;;;;3.50;1.13;;;13.90;99.90;;;;;;5416085;26;20410;-59
2024/04/20 01:11:59;;;;;;;2.35;1.08;;;14.00;99.90;;;;;;5415013;26;20009;-59
2024/04/20 01:14:24;;;;;;;2.20;1.08;;;14.00;99.90;;;;;;5415800;26;20003;-60
2024/04/20 01:16:50;;;;;;;3.08;0.95;;;14.00;99.90;;;;;;5416241;26;20453;-59
2024/04/20 01:19:22;;;;;;;3.30;0.80;;;14.00;99.90;;;;;;5415767;26;20012;-60
2024/04/20 01:21:48;;;;;;;1.85;0.75;;;13.90;99.90;;;;;;5415845;26;20429;-59
2024/04/20 01:24:15;;;;;;;4.03;1.40;;;14.00;99.90;;;;;;5415460;26;20003;-59
2024/04/20 01:26:41;;;;;;;6.72;1.63;;;13.90;99.90;;;;;;5413898;26;20301;-60
2024/04/20 01:29:07;;;;;;;4.80;1.48;;;13.90;99.90;;;;;;5415744;26;20080;-59
2024/04/20 01:35:43;;;;;;;4.05;1.20;;;13.60;99.90;;;;;;5385548;26;20284;-59
2024/04/20 01:38:09;;;;;;;1.45;0.90;;;13.80;99.90;;;;;;5388848;26;20462;-59
2024/04/20 01:40:35;;;;;;;2.33;1.20;;;13.70;99.90;;;;;;5408118;26;20079;-60
2024/04/20 01:43:00;;;;;;;1.92;1.17;;;13.80;99.90;;;;;;5410497;26;20000;-59
2024/04/20 01:45:26;;;;;;;2.22;1.08;;;13.60;99.90;;;;;;5414335;26;20146;-59
2024/04/20 01:47:52;;;;;;;3.08;0.70;;;13.70;99.90;;;;;;5414193;26;20015;-59
2024/04/20 01:50:18;;;;;;;2.70;0.80;;;13.70;99.90;;;;;;5392142;26;19996;-59
2024/04/20 01:52:43;;;;;;;4.35;1.10;;;13.70;99.90;;;;;;5412706;26;20003;-59
2024/04/20 01:55:09;;;;;;;5.82;1.70;;;13.50;99.90;;;;;;5416364;26;20072;-59
2024/04/20 01:57:35;;;;;;;2.35;1.15;;;13.60;99.90;;;;;;5403912;26;20000;-59
2024/04/20 02:00:01;;;;;;;0.75;0.65;;;13.60;99.90;;;;;;5403918;26;20436;-59
2024/04/20 02:02:27;;;;;;;3.88;1.15;;;13.70;99.90;;;;;;5390867;26;20461;-59
2024/04/20 02:04:52;;;;;;;1.85;0.60;;;13.70;99.90;;;;;;5416072;26;20014;-59
2024/04/20 02:07:18;;;;;;;1.95;0.57;;;13.70;99.90;;;;;;5410312;26;20444;-59
2024/04/20 02:09:44;;;;;;;3.95;0.55;;;13.60;99.90;;;;;;5415924;26;20005;-58
2024/04/20 02:12:10;;;;;;;1.67;0.75;;;13.60;99.90;;;;;;5415893;26;20441;-59
2024/04/20 02:14:36;;;;;;;4.10;0.70;;;13.50;99.90;;;;;;5414005;26;20495;-59
2024/04/20 02:17:02;;;;;;;2.58;0.70;;;13.50;99.90;;;;;;5414265;26;20015;-58
2024/04/20 02:19:28;;;;;;;0.70;0.40;;;13.60;99.90;;;;;;5416074;26;20007;-59
2024/04/20 02:21:54;;;;;;;1.25;0.60;;;13.70;99.90;;;;;;5415837;26;20088;-58
2024/04/20 02:24:20;;;;;;;1.63;0.50;;;13.70;99.90;;;;;;5414092;26;20011;-59
2024/04/20 02:26:45;;;;;;;3.28;0.40;;;13.50;99.90;;;;;;5416020;26;20003;-59
2024/04/20 02:29:11;;;;;;;3.55;0.70;;;13.50;99.90;;;;;;5414581;26;20024;-59
2024/04/20 02:31:37;;;;;;;1.10;0.50;;;13.40;99.90;;;;;;5392360;26;20003;-59
2024/04/20 02:34:02;;;;;;;2.95;0.85;;;13.40;99.90;;;;;;5415587;26;20007;-60
2024/04/20 02:36:28;;;;;;;1.95;0.40;;;13.50;99.90;;;;;;5415668;26;20004;-59
2024/04/20 02:38:54;;;;;;;1.13;0.40;;;13.50;99.90;;;;;;5415843;26;20015;-60
2024/04/20 02:41:20;;;;;;;1.88;0.65;;;13.60;99.90;;;;;;5415919;26;19999;-59
2024/04/20 02:43:46;;;;;;;1.35;0.30;;;13.50;99.90;;;;;;5413937;26;20012;-59
2024/04/20 02:46:12;;;;;;;1.27;0.28;;;13.30;99.90;;;;;;5408267;26;20012;-59
2024/04/20 02:48:38;;;;;;;1.08;0.40;;;13.30;99.90;;;;;;5407959;26;20417;-59
2024/04/20 02:51:09;;;;;;;2.05;0.43;;;13.40;99.90;;;;;;5411934;26;20010;-59
2024/04/20 02:53:35;;;;;;;2.95;0.50;;;13.20;99.90;;;;;;5410311;26;20465;-59
2024/04/20 02:56:01;;;;;;;1.10;0.43;;;13.30;99.90;;;;;;5398759;26;19999;-60
2024/04/20 02:58:28;;;;;;;0.63;0.40;;;13.30;99.90;;;;;;5408736;26;20490;-59
2024/04/20 03:00:55;;;;;;;0.75;0.40;;;13.30;99.90;;;;;;5414311;26;20080;-59
2024/04/20 03:03:20;;;;;;;1.20;0.30;;;13.00;99.90;;;;;;5414755;26;20000;-60
2024/04/20 03:05:46;;;;;;;1.55;0.40;;;13.20;99.90;;;;;;5377892;26;20034;-59
2024/04/20 03:08:11;;;;;;;1.42;0.30;;;13.10;99.90;;;;;;5406907;26;20011;-59
2024/04/20 03:10:37;;;;;;;2.28;0.65;;;13.20;99.90;;;;;;5415144;26;19999;-59
2024/04/20 03:13:03;;;;;;;0.65;0.40;;;13.10;99.90;;;;;;5413662;26;20428;-59
2024/04/20 03:15:28;;;;;;;0.90;0.30;;;13.10;99.90;;;;;;5414956;26;20006;-59
2024/04/20 03:17:54;;;;;;;0.35;0.30;;;13.20;99.90;;;;;;5415225;26;19995;-59
2024/04/20 03:20:20;;;;;;;1.38;0.50;;;13.10;99.90;;;;;;5414937;26;20094;-59
2024/04/20 03:22:46;;;;;;;0.93;0.20;;;13.10;99.90;;;;;;5414793;26;19999;-59
2024/04/20 03:25:12;;;;;;;0.77;0.32;;;12.90;99.90;;;;;;5414864;26;20032;-59
2024/04/20 03:27:38;;;;;;;0.30;0.20;;;13.00;99.90;;;;;;5413089;26;20071;-59
2024/04/20 03:30:05;;;;;;;0.43;0.22;;;13.00;99.90;;;;;;5413244;26;20011;-59
2024/04/20 03:32:30;;;;;;;1.17;0.20;;;13.00;99.90;;;;;;5412051;26;20004;-59
2024/04/20 03:34:56;;;;;;;0.70;0.30;;;13.00;99.90;;;;;;5414881;26;20345;-59
2024/04/20 03:37:31;;;;;;;1.20;0.28;;;13.00;99.90;;;;;;5414664;26;20003;-59
2024/04/20 03:39:56;;;;;;;1.00;0.38;;;13.00;99.90;;;;;;5414170;26;20019;-59
2024/04/20 03:42:23;;;;;;;0.25;0.15;;;13.00;99.90;;;;;;5408449;26;20004;-60
2024/04/20 03:44:49;;;;;;;2.20;0.47;;;13.00;99.90;;;;;;5414541;26;20374;-60
2024/04/20 03:47:15;;;;;;;0.70;0.20;;;13.00;99.90;;;;;;5412572;26;20004;-59
2024/04/20 03:49:41;;;;;;;0.50;0.40;;;13.00;99.90;;;;;;5414449;26;20082;-59
2024/04/20 03:52:06;;;;;;;0.40;0.20;;;13.00;99.90;;;;;;5414349;26;20076;-59
2024/04/20 03:54:32;;;;;;;0.40;0.10;;;13.10;99.90;;;;;;5414193;26;20015;-59
2024/04/20 03:56:58;;;;;;;1.33;0.20;;;13.10;99.90;;;;;;5414250;26;20014;-59
2024/04/20 03:59:35;;;;;;;1.30;0.40;;;13.00;99.90;;;;;;5407597;26;20076;-59
2024/04/20 04:02:01;;;;;;;2.22;0.20;;;12.90;99.90;;;;;;5412105;26;20080;-59
2024/04/20 04:04:27;;;;;;;0.28;0.10;;;13.10;99.90;;;;;;5413860;26;20011;-59
2024/04/20 04:06:52;;;;;;;0.30;0.20;;;13.20;99.90;;;;;;5414322;26;20011;-59
2024/04/20 04:09:18;;;;;;;0.60;0.20;;;13.20;99.90;;;;;;5414370;26;20003;-59
2024/04/20 04:11:45;;;;;;;0.68;0.20;;;13.30;99.90;;;;;;5413937;26;20469;-59
2024/04/20 04:14:10;;;;;;;0.45;0.20;;;13.20;99.90;;;;;;5416416;26;20459;-59
2024/04/20 04:16:36;;;;;;;1.08;0.32;;;13.30;99.90;;;;;;5415595;26;20052;-59
2024/04/20 04:19:02;;;;;;;0.32;0.10;;;13.30;99.90;;;;;;5417811;26;20007;-59
2024/04/20 04:21:30;;;;;;;1.27;0.30;;;13.20;99.90;;;;;;5417384;26;20000;-59
2024/04/20 04:23:56;;;;;;;0.32;0.20;;;13.10;99.90;;;;;;5417329;26;20367;-60
2024/04/20 04:26:23;;;;;;;1.45;0.13;;;13.20;99.90;;;;;;5415429;26;20004;-59
2024/04/20 04:28:49;;;;;;;0.50;0.20;;;13.20;99.90;;;;;;5417292;26;20342;-59
2024/04/20 04:31:15;;;;;;;0.32;0.10;;;13.20;99.90;;;;;;5413669;26;20169;-59
2024/04/20 04:33:41;;;;;;;0.25;0.10;;;13.20;99.90;;;;;;5417443;26;20000;-59
2024/04/20 04:36:07;;;;;;;1.63;0.20;;;13.10;99.90;;;;;;5391729;26;20302;-59
2024/04/20 04:38:32;;;;;;;1.23;0.35;;;13.10;99.90;;;;;;5417586;26;20010;-59
2024/04/20 04:40:58;;;;;;;0.30;0.10;;;13.10;99.90;;;;;;5411011;26;20015;-60
2024/04/20 04:43:24;;;;;;;0.77;0.20;;;13.00;99.90;;;;;;5380108;26;20015;-59
2024/04/20 04:45:50;;;;;;;1.27;0.22;;;13.10;99.90;;;;;;5414839;26;20118;-59
2024/04/20 04:48:17;;;;;;;1.88;0.10;;;13.10;99.90;;;;;;5417548;26;20010;-59
2024/04/20 04:50:44;;;;;;;3.25;0.40;;;13.00;99.90;;;;;;5415196;26;20047;-59
2024/04/20 04:53:09;;;;;;;1.55;0.20;;;13.00;99.90;;;;;;5417298;26;20000;-59
2024/04/20 04:55:35;;;;;;;1.23;0.10;;;13.10;99.90;;;;;;5417079;26;20003;-59
2024/04/20 04:58:01;;;;;;;0.00;0.00;;;13.00;99.90;;;;;;5412804;26;20107;-60
2024/04/20 05:03:49;;;;;;;0.95;0.10;;;13.10;99.90;;;;;;5385998;26;21096;-59
2024/04/20 05:06:15;;;;;;;0.45;0.00;;;12.90;99.90;;;;;;5409205;26;20026;-59
2024/04/20 05:08:41;;;;;;;0.10;0.00;;;12.80;99.90;;;;;;5415156;26;20003;-59
2024/04/20 05:11:06;;;;;;;0.55;0.05;;;12.90;99.90;;;;;;5416976;26;20065;-59
2024/04/20 05:13:32;;;;;;;0.40;0.10;;;12.80;99.90;;;;;;5415002;26;20449;-59
2024/04/20 05:15:57;;;;;;;0.73;0.30;;;13.00;99.90;;;;;;5416863;26;20003;-59
2024/04/20 05:18:23;;;;;;;0.55;0.17;;;13.00;99.90;;;;;;5416926;26;20033;-59
2024/04/20 05:20:50;;;;;;;0.47;0.20;;;13.00;99.90;;;;;;5406566;26;20299;-59
2024/04/20 05:23:15;;;;;;;0.17;0.10;;;13.00;99.90;;;;;;5409202;26;20004;-59
2024/04/20 05:25:42;;;;;;;0.43;0.32;;;13.10;99.90;;;;;;5416277;26;20014;-60
2024/04/20 05:28:08;;;;;;;0.30;0.10;;;13.00;99.90;;;;;;5391966;26;20073;-59
2024/04/20 05:30:33;;;;;;;0.00;0.00;;;13.10;99.90;;;;;;5416150;26;20012;-59
2024/04/20 05:32:59;;;;;;;2.25;0.10;;;13.10;99.90;;;;;;5415878;26;20003;-59
2024/04/20 05:35:24;;;;;;;0.60;0.10;;;13.00;99.90;;;;;;5415997;26;20013;-59
2024/04/20 05:37:50;;;;;;;1.55;0.20;;;13.10;99.90;;;;;;5416602;26;20437;-60
2024/04/20 05:40:16;;;;;;;0.65;0.10;;;13.20;99.90;;;;;;5415741;26;20207;-59
2024/04/20 05:42:42;;;;;;;0.17;0.10;;;13.20;99.90;;;;;;5416590;26;20076;-59
2024/04/20 05:45:07;;;;;;;0.30;0.10;;;13.20;99.90;;;;;;5416021;26;20026;-59
2024/04/20 05:47:33;;;;;;;0.70;0.10;;;13.20;99.90;;;;;;5415661;26;20139;-60
2024/04/20 05:49:58;;;;;;;1.90;0.13;;;13.20;99.90;;;;;;5416350;26;20014;-60
2024/04/20 05:52:24;;;;;;;3.40;0.20;;;13.20;99.90;;;;;;5416259;26;20019;-60
2024/04/20 05:54:50;;;;;;;4.75;0.30;;;13.20;99.90;;;;;;5399560;26;20000;-59
2024/04/20 05:57:16;;;;;;;0.98;0.10;;;13.30;99.90;;;;;;5414000;26;20079;-60
2024/04/20 05:59:41;;;;;;;1.55;0.15;;;13.40;99.90;;;;;;5415677;26;19995;-59
2024/04/20 06:02:07;;;;;;;1.45;0.10;;;13.30;99.90;;;;;;5415141;26;20011;-59
2024/04/20 06:04:32;;;;;;;0.40;0.20;;;13.40;99.90;;;;;;5415367;26;20018;-59
2024/04/20 06:06:58;;;;;;;0.57;0.20;;;13.40;99.90;;;;;;5414197;26;20000;-59
2024/04/20 06:09:24;;;;;;;3.85;0.28;;;13.50;99.90;;;;;;5405590;26;20073;-59
2024/04/20 06:11:50;;;;;;;1.88;0.20;;;13.60;99.90;;;;;;5404687;26;20004;-60
2024/04/20 06:14:17;;;;;;;1.80;0.40;;;13.60;99.90;;;;;;5415786;26;19999;-59
2024/04/20 06:16:43;;;;;;;0.55;0.08;;;13.60;99.90;;;;;;5414399;26;20072;-59
2024/04/20 06:19:08;;;;;;;2.33;0.40;;;13.60;99.90;;;;;;5415437;26;20414;-59
2024/04/20 06:21:34;;;;;;;1.02;0.20;;;13.70;99.90;;;;;;5415667;26;20003;-59
2024/04/20 06:24:00;;;;;;;0.80;0.20;;;13.60;99.90;;;;;;5408772;26;20015;-59
2024/04/20 06:26:26;;;;;;;0.35;0.22;;;13.70;99.90;;;;;;5415000;26;20305;-59
2024/04/20 06:28:52;;;;;;;1.00;0.20;;;13.80;99.90;;;;;;5415663;26;20018;-59
2024/04/20 06:31:17;;;;;;;1.55;0.13;;;13.80;99.90;;;;;;5408206;26;20004;-59
2024/04/20 06:33:43;;;;;;;2.45;0.70;;;13.80;99.90;;;;;;5414000;26;20006;-59
2024/04/20 06:36:09;;;;;;;4.28;0.47;;;13.90;99.90;;;;;;5412786;26;20097;-59
2024/04/20 06:38:35;;;;;;;0.95;0.30;;;13.90;99.90;;;;;;5403148;26;20011;-59
2024/04/20 06:41:04;;;;;;;0.55;0.22;;;14.00;99.90;;;;;;5414306;26;20014;-59
2024/04/20 06:43:29;;;;;;;1.65;0.28;;;14.10;99.90;;;;;;5399112;26;19996;-59
2024/04/20 06:45:55;;;;;;;2.38;0.22;;;14.20;99.90;;;;;;5415517;26;20011;-59
2024/04/20 06:48:20;;;;;;;1.75;0.20;;;14.10;99.90;;;;;;5415463;26;20429;-59
2024/04/20 06:50:46;;;;;;;0.98;0.10;;;14.20;99.90;;;;;;5411988;26;20011;-59
2024/04/20 06:53:12;;;;;;;2.22;0.32;;;14.20;99.90;;;;;;5414627;26;20057;-59
2024/04/20 06:55:37;;;;;;;0.30;0.10;;;14.20;99.90;;;;;;5415483;26;20003;-59
2024/04/20 06:58:03;;;;;;;2.20;0.10;;;14.30;99.90;;;;;;5414675;26;20068;-59
2024/04/20 07:00:41;;;;;;;2.00;0.25;;;14.30;99.90;;;;;;5412246;26;20341;-60
2024/04/20 07:03:07;;;;;;;2.60;0.30;;;14.40;99.90;;;;;;5414861;26;20338;-59
2024/04/20 07:05:32;;;;;;;1.95;0.20;;;14.40;99.90;;;;;;5405823;26;20010;-47
2024/04/20 07:07:58;;;;;;;0.63;0.30;;;14.40;99.90;;;;;;5414893;26;20445;-49
2024/04/20 07:10:24;;;;;;;0.73;0.10;;;14.50;99.90;;;;;;5415006;26;19999;-48
2024/04/20 07:12:49;;;;;;;2.22;0.13;;;14.50;99.90;;;;;;5415352;26;20441;-48
2024/04/20 07:15:15;;;;;;;0.57;0.10;;;14.60;99.90;;;;;;5413429;26;20068;-54
2024/04/20 07:17:40;;;;;;;0.45;0.10;;;14.70;99.90;;;;;;5394773;26;20004;-48
2024/04/20 07:20:06;;;;;;;0.30;0.10;;;14.70;99.90;;;;;;5410859;26;20015;-47
2024/04/20 07:22:32;;;;;;;2.95;0.15;;;14.70;99.90;;;;;;5415048;26;20010;-47
2024/04/20 07:24:57;;;;;;;0.52;0.30;;;14.80;99.90;;;;;;5412782;26;20007;-47
2024/04/20 07:27:24;;;;;;;0.55;0.30;;;14.90;99.90;;;;;;5413179;26;20031;-48
2024/04/20 07:29:50;;;;;;;2.22;0.20;;;14.80;99.90;;;;;;5404821;26;20101;-49
2024/04/20 07:32:15;;;;;;;2.63;0.30;;;14.90;99.90;;;;;;5414061;26;20017;-49
2024/04/20 07:34:41;;;;;;;4.47;0.32;;;14.90;99.90;;;;;;5414239;26;20000;-48
2024/04/20 07:37:06;;;;;;;1.80;0.00;;;15.00;99.90;;;;;;5402442;26;20008;-60
2024/04/20 07:39:32;;;;;;;5.70;0.38;;;15.20;99.90;;;;;;5405046;26;20012;-56
2024/04/20 07:41:57;;;;;;;2.55;0.15;;;15.10;99.90;;;;;;5409656;26;20011;-56
2024/04/20 07:44:23;;;;;;;1.13;0.20;;;15.10;99.90;;;;;;5404311;26;20004;-56
2024/04/20 07:47:03;;;;;;;2.17;0.13;;;15.20;99.90;;;;;;5402652;26;20011;-57
2024/04/20 07:49:28;;;;;;;1.15;0.10;;;15.10;99.90;;;;;;5410662;26;20027;-59
2024/04/20 07:51:54;;;;;;;0.32;0.10;;;15.10;99.90;;;;;;5386426;26;19996;-59
2024/04/20 07:54:21;;;;;;;0.82;0.20;;;15.20;99.90;;;;;;5418191;26;20010;-59
2024/04/20 07:56:47;;;;;;;2.30;0.30;;;15.20;99.90;;;;;;5417828;26;20004;-59
2024/04/20 07:59:12;;;;;;;2.38;0.35;;;15.30;99.90;;;;;;5417688;26;19996;-59
2024/04/20 08:01:38;;;;;;;1.38;0.50;;;15.30;99.90;;;;;;5418111;26;19999;-60
2024/04/20 08:04:04;;;;;;;1.85;0.20;;;15.30;99.90;;;;;;5417298;26;20341;-60
2024/04/20 08:06:29;;;;;;;2.70;0.20;;;15.40;99.90;;;;;;5417625;26;20471;-60
2024/04/20 08:12:17;;;;;;;2.05;0.35;;;15.60;99.90;;;;;;5383318;26;20070;-60
2024/04/20 08:14:43;;;;;;;1.02;0.13;;;15.70;99.90;;;;;;5411867;26;20031;-60
2024/04/20 08:17:09;;;;;;;1.55;0.40;;;15.70;99.90;;;;;;5417622;26;20015;-60
2024/04/20 08:19:35;;;;;;;1.20;0.10;;;15.70;99.90;;;;;;5417303;26;20003;-60
2024/04/20 08:22:00;;;;;;;1.85;0.10;;;15.70;99.90;;;;;;5414536;26;20442;-60
2024/04/20 08:24:26;;;;;;;1.30;0.17;;;15.90;99.90;;;;;;5417727;26;20053;-59
2024/04/20 08:26:51;;;;;;;1.52;0.20;;;15.90;99.90;;;;;;5417938;26;20027;-59
2024/04/20 08:29:17;;;;;;;0.65;0.10;;;15.90;99.90;;;;;;5417172;26;20014;-60
2024/04/20 08:31:42;;;;;;;4.60;0.47;;;15.90;99.90;;;;;;5415185;26;20072;-60
2024/04/20 08:34:08;;;;;;;5.53;0.50;;;15.90;99.90;;;;;;5417478;26;20011;-60
2024/04/20 08:36:34;;;;;;;3.75;0.20;;;15.90;99.90;;;;;;5417876;26;20036;-60
2024/04/20 08:38:59;;;;;;;3.90;0.68;;;16.00;99.90;;;;;;5416818;26;20094;-60
2024/04/20 08:41:27;;;;;;;1.27;0.15;;;16.00;99.90;;;;;;5417631;26;20009;-60
2024/04/20 08:43:54;;;;;;;2.72;0.10;;;16.00;99.90;;;;;;5417399;26;20433;-52
2024/04/20 08:46:21;;;;;;;1.50;0.30;;;16.10;99.90;;;;;;5406559;26;20290;-54
2024/04/20 08:48:49;;;;;;;1.58;0.20;;;16.20;99.90;;;;;;5417540;26;20328;-54
2024/04/20 08:51:20;;;;;;;5.50;0.30;;;16.10;99.90;;;;;;5417226;26;19999;-53
2024/04/20 08:53:47;;;;;;;1.75;0.25;;;16.20;99.90;;;;;;5417390;26;20077;-58
2024/04/20 08:56:13;;;;;;;2.80;0.17;;;16.30;99.90;;;;;;5411874;26;20000;-60
2024/04/20 08:58:39;;;;;;;0.80;0.10;;;16.50;99.90;;;;;;5404555;26;20340;-60
2024/04/20 09:01:12;;;;;;;1.05;0.20;;;16.50;99.90;;;;;;5416889;26;20015;-60
2024/04/20 09:03:39;;;;;;;1.45;0.00;;;16.60;99.90;;;;;;5412063;26;20004;-60
2024/04/20 09:06:06;;;;;;;0.10;0.10;;;16.50;99.90;;;;;;5412487;26;20344;-61
2024/04/20 09:08:34;;;;;;;2.30;0.10;;;16.60;99.90;;;;;;5417062;26;20027;-60
2024/04/20 09:10:59;;;;;;;0.10;0.10;;;16.60;99.90;;;;;;5416961;26;20003;-60
2024/04/20 09:13:25;;;;;;;0.20;0.00;;;16.60;99.90;;;;;;5416698;26;20000;-60
2024/04/20 09:15:50;;;;;;;2.13;0.28;;;16.70;99.90;;;;;;5414589;26;20325;-60
2024/04/20 09:18:19;;;;;;;0.90;0.13;;;16.70;99.90;;;;;;5414942;26;20437;-60
2024/04/20 09:20:47;;;;;;;0.25;0.20;;;16.70;99.90;;;;;;5414828;26;20011;-60
2024/04/20 09:23:13;;;;;;;0.90;0.30;;;16.60;99.90;;;;;;5415108;26;20004;-60
2024/04/20 09:25:38;;;;;;;2.55;0.13;;;16.70;99.90;;;;;;5416905;26;20010;-60
2024/04/20 09:28:05;;;;;;;2.55;0.10;;;;;;;;;;5414653;26;20080;-60
2024/04/20 09:30:31;;;;;;;1.00;0.10;;;;;;;;;;5405712;26;20072;-60
2024/04/20 09:32:57;;;;;;;0.40;0.10;;;;;;;;;;5395550;26;20008;-60
2024/04/20 09:35:24;;;;;;;0.40;0.10;;;;;;;;;;5412876;26;20072;-60
2024/04/20 09:37:51;;;;;;;0.63;0.10;;;;;;;;;;5390609;26;20081;-60
2024/04/20 09:40:17;;;;;;;0.40;0.10;;;;;;;;;;5410467;26;20018;-60
2024/04/20 09:42:45;;;;;;;0.88;0.10;;;;;;;;;;5401994;26;20000;-60
2024/04/20 09:45:11;;;;;;;0.82;0.20;;;;;;;;;;5415980;26;20003;-61
2024/04/20 09:47:37;;;;;;;1.30;0.40;;;;;;;;;;5416393;26;20000;-61
2024/04/20 09:50:10;;;;;;;0.55;0.25;;;;;;;;;;5416771;26;20082;-61
2024/04/20 09:52:49;;;;;;;1.83;0.10;;;;;;;;;;5391914;26;20375;-60
2024/04/20 09:55:41;;;;;;;0.60;0.10;;;;;;;;;;5416371;26;20003;-60
2024/04/20 09:58:08;;;;;;;1.05;0.20;;;;;;;;;;5392855;26;20006;-60
2024/04/20 10:00:36;;;;;;;3.10;0.30;;;16.80;99.90;;;;;;5416291;26;20007;-57
2024/04/20 10:03:06;;;;;;;3.45;2.13;;;17.50;99.90;;;;;;5391714;26;20473;-55
2024/04/20 10:05:36;;;;;;;2.70;2.50;;;17.50;99.90;;;;;;5416286;26;19999;-60
2024/04/20 10:08:05;;;;;;;3.20;1.10;;;17.60;99.90;;;;;;5391005;26;20012;-48
2024/04/20 10:10:34;;;;;;;3.22;1.10;;;17.60;99.90;;;;;;5398509;26;20023;-46
2024/04/20 10:13:02;;;;;;;1.13;0.30;;;17.70;99.90;;;;;;5412041;26;20004;-49
2024/04/20 10:15:33;;;;;;;0.77;0.20;;;17.70;99.90;;;;;;5415815;26;20004;-65
2024/04/20 10:18:00;;;;;;;2.25;0.30;;;17.80;99.90;;;;;;5415217;26;20088;-54
2024/04/20 10:20:36;;;;;;;2.28;0.38;;;17.90;99.90;;;;;;5415624;26;19999;-53
2024/04/20 10:23:18;;;;;;;2.47;0.50;;;17.90;99.90;;;;;;5407381;26;20011;-49
2024/04/20 10:25:51;;;;;;;3.38;0.75;;;17.90;99.90;;;;;;5406772;26;20017;-52
2024/04/20 10:32:23;;;;;;;3.03;0.75;;;18.00;99.90;;;;;;5366886;26;20008;-50
2024/04/20 10:34:48;;;;;;;1.80;1.05;;;18.00;99.90;;;;;;5369739;26;20059;-53
2024/04/20 10:37:24;;;;;;;1.50;0.65;;;;;;;;;;5415636;26;20011;-49
2024/04/20 10:39:49;;;;;;;5.63;0.90;;;18.10;99.90;;;;;;5415303;26;20015;-50
2024/04/20 10:42:22;;;;;;;3.97;0.50;;;18.20;99.90;;;;;;5403674;26;20003;-49
2024/04/20 10:44:48;;;;;;;3.00;0.60;;;18.20;99.90;;;;;;5415842;26;20015;-48
2024/04/20 10:47:19;;;;;;;2.25;0.60;;;18.30;99.90;;;;;;5413232;26;20398;-51
2024/04/20 10:49:45;;;;;;;3.25;0.55;;;18.40;99.90;;;;;;5415573;26;20080;-50
2024/04/20 10:52:11;;;;;;;2.50;0.50;;;18.40;99.90;;;;;;5415376;26;20011;-52
2024/04/20 10:54:37;;;;;;;2.00;0.68;;;18.50;99.90;;;;;;5415502;26;20068;-51
2024/04/20 10:57:04;;;;;;;2.30;0.43;;;18.60;99.90;;;;;;5404992;26;20012;-51
2024/04/20 10:59:30;;;;;;;5.88;0.50;;;18.50;99.90;;;;;;5415435;26;20003;-53
2024/04/20 11:01:57;;;;;;;0.90;0.75;;;18.50;99.90;;;;;;5410973;26;20068;-51
2024/04/20 11:04:36;;;;;;;3.33;0.98;;;18.60;99.90;;;;;;5410358;26;20036;-52
2024/04/20 11:07:02;;;;;;;3.58;0.73;;;18.70;99.90;;;;;;5400859;26;20479;-51
2024/04/20 11:09:31;;;;;;;3.92;0.50;;;18.70;99.90;;;;;;5414587;26;20011;-51
2024/04/20 11:12:01;;;;;;;1.83;0.55;;;18.80;99.90;;;;;;5415534;26;20003;-53
2024/04/20 11:14:28;;;;;;;1.98;0.77;;;18.80;99.90;;;;;;5412648;26;20007;-53
2024/04/20 11:16:54;;;;;;;2.25;0.88;;;18.80;99.90;;;;;;5414783;26;20011;-51
2024/04/20 11:19:20;;;;;;;2.45;0.73;;;19.00;99.90;;;;;;5414995;26;20012;-52
2024/04/20 11:21:46;;;;;;;3.13;0.80;;;19.00;99.90;;;;;;5414635;26;20083;-54
2024/04/20 11:24:12;;;;;;;4.90;1.15;;;19.10;99.90;;;;;;5414631;26;20132;-54
2024/04/20 11:26:38;;;;;;;1.77;0.50;;;19.20;99.90;;;;;;5406645;26;20004;-53
2024/04/20 11:29:04;;;;;;;3.85;0.75;;;19.30;99.90;;;;;;5398276;26;20006;-53
2024/04/20 11:31:30;;;;;;;1.27;0.20;;;19.30;99.90;;;;;;5415025;26;20004;-52
2024/04/20 11:33:55;;;;;;;2.58;0.40;;;19.40;99.90;;;;;;5413690;26;20015;-61
2024/04/20 11:36:23;;;;;;;0.35;0.20;;;;;;;;;;5401277;26;20022;-63
2024/04/20 11:38:49;;;;;;;;;;;;;;;;;;5407925;26;20004;-62
2024/04/20 11:41:23;;;;;;;2.40;0.50;;;;;;;;;;5414278;26;19939;-63
2024/04/20 11:43:49;;;;;;;1.73;0.40;;;;;;;;;;5415730;26;20147;-64
2024/04/20 11:46:15;;;;;;;1.10;0.30;;;;;;;;;;5412581;26;20107;-62
2024/04/20 11:48:41;;;;;;;2.92;0.40;;;;;;;;;;5415238;26;20007;-62
2024/04/20 11:54:17;;;;;;;0.82;0.50;;;;;;;;;;5413372;26;20007;-63
2024/04/20 11:56:44;;;;;;;3.97;0.63;;;19.60;99.90;;;;;;5398097;26;20071;-63
2024/04/20 11:59:13;;;;;;;1.00;0.50;;;;;;;;;;5413579;26;20004;-63
2024/04/20 12:01:39;;;;;;;1.75;0.30;;;21.30;99.90;;;;;;5399896;26;20342;-63
2024/04/20 12:04:08;;;;;;;0.73;0.45;;;;;;;;;;5405558;26;20015;-63
2024/04/20 12:06:34;;;;;;;2.75;1.00;;;22.40;99.90;;;;;;5414745;26;20030;-64
2024/04/20 12:08:59;;;;;;;0.40;0.40;;;20.90;99.90;;;;;;5400884;26;20000;-63
2024/04/20 12:11:26;;;;;;;2.90;0.40;;;20.60;99.90;;;;;;5413001;26;20003;-64
2024/04/20 12:13:51;;;;;;;0.70;0.43;;;20.50;99.90;;;;;;5414580;26;20003;-64
2024/04/20 12:16:17;;;;;;;0.80;0.35;;;21.10;99.90;;;;;;5413885;26;20007;-64
2024/04/20 12:18:45;;;;;;;2.97;0.50;;;20.80;99.90;;;;;;5411468;26;19996;-64
2024/04/20 12:21:13;;;;;;;4.05;0.60;;;20.90;99.90;;;;;;5409297;26;20002;-64
2024/04/20 12:23:40;;;;;;;1.25;0.35;;;21.00;99.90;;;;;;5390771;26;20076;-64
2024/04/20 12:26:07;;;;;;;0.73;0.57;;;20.90;99.90;;;;;;5407332;26;20097;-64
2024/04/20 12:28:33;;;;;;;1.65;0.40;;;20.70;99.90;;;;;;5412070;26;20011;-64
2024/04/20 12:31:00;;;;;;;0.47;0.30;;;20.60;99.90;;;;;;5413470;26;20015;-64
2024/04/20 12:41:02;;;;;;;3.80;0.90;;;22.00;99.90;;;;;;5374671;26;20020;-63
2024/04/20 12:43:28;;;;;;;1.48;0.60;;;23.20;99.90;;;;;;5370971;26;20004;-64
2024/04/20 12:45:54;;;;;;;1.25;0.57;;;;;;;;;;5372991;26;20000;-64
2024/04/20 12:48:19;;;;;;;3.15;0.95;;;25.00;99.90;;;;;;5382048;26;20012;-64
2024/04/20 12:50:46;;;;;;;0.88;0.73;;;26.40;99.90;;;;;;5366763;26;20001;-64
2024/04/20 12:53:12;;;;;;;2.38;0.70;;;28.00;99.90;;;;;;5377215;26;20007;-64
2024/04/20 12:55:38;;;;;;;1.95;1.02;;;26.70;99.90;;;;;;5371033;26;20004;-64
2024/04/20 12:58:03;;;;;;;1.80;1.35;;;25.80;99.90;;;;;;5361957;26;20000;-64
2024/04/20 13:00:29;;;;;;;1.65;1.45;;;26.00;99.90;;;;;;5381156;26;20080;-64
2024/04/20 13:02:55;;;;;;;1.90;0.88;;;25.20;99.90;;;;;;5380090;26;20456;-64
2024/04/20 13:05:21;;;;;;;1.67;1.10;;;25.80;99.90;;;;;;5381988;26;19996;-63
2024/04/20 13:07:46;;;;;;;2.42;0.70;;;26.70;99.90;;;;;;5363345;26;19997;-64
2024/04/20 13:10:12;;;;;;;2.03;0.80;;;26.70;99.90;;;;;;5370976;26;20335;-64
2024/04/20 13:12:38;;;;;;;0.55;0.50;;;25.30;99.90;;;;;;5380733;26;20000;-64
2024/04/20 13:15:04;;;;;;;1.77;0.77;;;25.70;99.90;;;;;;5380959;26;19996;-63
2024/04/20 13:17:33;;;;;;;0.88;0.60;;;28.80;99.90;;;;;;5378476;26;20460;-63